createdAt,value
2023-05-20T00:00:39.773Z,35.84
2023-05-20T00:01:39.823Z,35.89
2023-05-20T00:02:39.936Z,35.88
2023-05-20T00:03:40.038Z,35.89
2023-05-20T00:04:39.986Z,35.87
2023-05-20T00:05:40.295Z,35.86
2023-05-20T00:06:40.105Z,35.89
2023-05-20T00:07:40.143Z,35.89
2023-05-20T00:08:40.185Z,35.87
2023-05-20T00:09:40.257Z,35.90
2023-05-20T00:10:40.301Z,35.89
2023-05-20T00:11:40.375Z,35.87
2023-05-20T00:12:40.426Z,35.89
2023-05-20T00:13:40.492Z,35.87
2023-05-20T00:14:40.546Z,35.90
2023-05-20T00:15:40.578Z,35.89
2023-05-20T00:16:40.695Z,35.90
2023-05-20T00:17:40.720Z,35.90
2023-05-20T00:18:40.782Z,35.90
2023-05-20T00:19:40.833Z,35.91
2023-05-20T00:20:40.879Z,35.93
2023-05-20T00:21:40.954Z,35.92
2023-05-20T00:22:41.001Z,35.93
2023-05-20T00:23:41.062Z,35.94
2023-05-20T00:24:41.113Z,35.93
2023-05-20T00:25:41.164Z,35.94
2023-05-20T00:26:41.246Z,35.95
2023-05-20T00:27:41.275Z,35.96
2023-05-20T00:28:41.345Z,35.94
2023-05-20T00:29:41.414Z,35.94
2023-05-20T00:30:41.457Z,35.92
2023-05-20T00:31:41.562Z,35.91
2023-05-20T00:32:41.610Z,35.91
2023-05-20T00:33:41.632Z,35.91
2023-05-20T00:34:41.704Z,35.93
2023-05-20T00:35:41.763Z,35.93
2023-05-20T00:36:41.808Z,35.92
2023-05-20T00:37:41.878Z,35.91
2023-05-20T00:38:41.937Z,35.90
2023-05-20T00:39:42.008Z,35.92
2023-05-20T00:40:42.071Z,35.90
2023-05-20T00:41:42.116Z,35.90
2023-05-20T00:42:42.180Z,35.90
2023-05-20T00:43:42.236Z,35.91
2023-05-20T00:44:42.321Z,35.91
2023-05-20T00:45:42.394Z,35.93
2023-05-20T00:46:42.427Z,35.92
2023-05-20T00:47:42.512Z,35.94
2023-05-20T00:48:42.540Z,35.93
2023-05-20T00:49:42.637Z,35.91
2023-05-20T00:50:42.673Z,35.93
2023-05-20T00:51:42.732Z,35.92
2023-05-20T00:52:42.794Z,35.89
2023-05-20T00:53:42.862Z,35.89
2023-05-20T00:54:42.926Z,35.88
2023-05-20T00:55:42.972Z,35.87
2023-05-20T00:56:43.057Z,35.87
2023-05-20T00:57:43.116Z,35.90
2023-05-20T00:58:43.154Z,35.88
2023-05-20T00:59:44.775Z,35.87
2023-05-20T01:00:43.276Z,35.87
2023-05-20T01:01:43.444Z,35.89
2023-05-20T01:02:43.462Z,35.85
2023-05-20T01:03:43.510Z,35.89
2023-05-20T01:04:43.519Z,35.89
2023-05-20T01:05:43.565Z,35.89
2023-05-20T01:06:43.647Z,35.90
2023-05-20T01:07:43.695Z,35.87
2023-05-20T01:08:43.741Z,35.85
2023-05-20T01:09:43.827Z,35.85
2023-05-20T01:10:43.868Z,35.88
2023-05-20T01:11:43.932Z,35.89
2023-05-20T01:12:43.978Z,35.85
2023-05-20T01:13:44.039Z,35.87
2023-05-20T01:14:44.107Z,35.87
2023-05-20T01:15:44.225Z,35.85
2023-05-20T01:16:44.224Z,35.89
2023-05-20T01:17:44.293Z,35.86
2023-05-20T01:18:44.371Z,35.86
2023-05-20T01:19:44.374Z,35.87
2023-05-20T01:20:44.430Z,35.86
2023-05-20T01:21:44.506Z,35.83
2023-05-20T01:22:44.543Z,35.81
2023-05-20T01:23:44.625Z,35.77
2023-05-20T01:24:44.668Z,35.78
2023-05-20T01:25:44.701Z,35.78
2023-05-20T01:26:44.783Z,35.78
2023-05-20T01:27:44.825Z,35.81
2023-05-20T01:28:44.888Z,35.79
2023-05-20T01:29:44.916Z,35.79
2023-05-20T01:30:46.307Z,35.81
2023-05-20T01:31:45.059Z,35.79
2023-05-20T01:32:45.115Z,35.79
2023-05-20T01:33:45.170Z,35.80
2023-05-20T01:34:45.236Z,35.81
2023-05-20T01:35:45.261Z,35.82
2023-05-20T01:36:45.326Z,35.81
2023-05-20T01:37:45.370Z,35.82
2023-05-20T01:38:45.445Z,35.82
2023-05-20T01:39:45.493Z,35.78
2023-05-20T01:40:45.562Z,35.80
2023-05-20T01:41:45.604Z,35.82
2023-05-20T01:42:45.652Z,35.82
2023-05-20T01:43:45.738Z,35.84
2023-05-20T01:44:45.786Z,35.82
2023-05-20T01:45:45.832Z,35.82
2023-05-20T01:46:45.927Z,35.85
2023-05-20T01:47:45.987Z,35.85
2023-05-20T01:48:46.022Z,35.86
2023-05-20T01:49:46.057Z,35.85
2023-05-20T01:50:46.128Z,35.86
2023-05-20T01:51:46.176Z,35.86
2023-05-20T01:52:46.234Z,35.85
2023-05-20T01:53:46.345Z,35.85
2023-05-20T01:54:46.361Z,35.85
2023-05-20T01:55:46.402Z,35.85
2023-05-20T01:56:46.470Z,35.83
2023-05-20T01:57:46.519Z,35.86
2023-05-20T01:58:46.592Z,35.84
2023-05-20T01:59:46.640Z,35.87
2023-05-20T02:00:46.787Z,35.88
2023-05-20T02:01:46.914Z,35.87
2023-05-20T02:02:46.950Z,35.86
2023-05-20T02:03:46.885Z,35.88
2023-05-20T02:04:46.921Z,35.86
2023-05-20T02:05:47.031Z,35.85
2023-05-20T02:06:47.055Z,35.87
2023-05-20T02:07:47.123Z,35.88
2023-05-20T02:08:47.168Z,35.87
2023-05-20T02:09:47.249Z,35.86
2023-05-20T02:10:47.307Z,35.85
2023-05-20T02:11:47.362Z,35.85
2023-05-20T02:12:47.417Z,35.84
2023-05-20T02:13:47.505Z,35.84
2023-05-20T02:14:47.547Z,35.82
2023-05-20T02:15:47.616Z,35.84
2023-05-20T02:16:47.719Z,35.83
2023-05-20T02:17:47.770Z,35.82
2023-05-20T02:18:47.837Z,35.83
2023-05-20T02:19:47.849Z,35.84
2023-05-20T02:20:47.945Z,35.84
2023-05-20T02:21:47.989Z,35.84
2023-05-20T02:22:48.055Z,35.84
2023-05-20T02:23:48.133Z,35.84
2023-05-20T02:24:48.185Z,35.85
2023-05-20T02:25:48.250Z,35.85
2023-05-20T02:26:48.300Z,35.86
2023-05-20T02:27:48.376Z,35.86
2023-05-20T02:28:48.424Z,35.85
2023-05-20T02:29:48.506Z,35.87
2023-05-20T02:30:48.561Z,35.85
2023-05-20T02:31:48.633Z,35.85
2023-05-20T02:32:48.759Z,35.85
2023-05-20T02:33:48.868Z,35.84
2023-05-20T02:34:48.822Z,35.86
2023-05-20T02:35:48.880Z,35.84
2023-05-20T02:36:48.956Z,35.85
2023-05-20T02:37:49.004Z,35.85
2023-05-20T02:38:49.086Z,35.84
2023-05-20T02:39:49.139Z,35.85
2023-05-20T02:40:49.181Z,35.85
2023-05-20T02:41:49.239Z,35.87
2023-05-20T02:42:49.319Z,35.85
2023-05-20T02:43:49.366Z,35.86
2023-05-20T02:44:49.439Z,35.86
2023-05-20T02:45:49.554Z,35.87
2023-05-20T02:46:49.552Z,35.85
2023-05-20T02:47:49.621Z,35.87
2023-05-20T02:48:49.679Z,35.86
2023-05-20T02:49:49.728Z,35.85
2023-05-20T02:50:49.814Z,35.86
2023-05-20T02:51:49.860Z,35.87
2023-05-20T02:52:49.899Z,35.86
2023-05-20T02:53:49.960Z,35.85
2023-05-20T02:54:50.031Z,35.84
2023-05-20T02:55:50.081Z,35.85
2023-05-20T02:56:50.160Z,35.82
2023-05-20T02:57:50.219Z,35.81
2023-05-20T02:58:50.277Z,35.80
2023-05-20T02:59:50.335Z,35.83
2023-05-20T03:00:50.398Z,35.81
2023-05-20T03:01:50.533Z,35.81
2023-05-20T03:02:50.571Z,35.82
2023-05-20T03:03:50.720Z,35.82
2023-05-20T03:04:50.802Z,35.83
2023-05-20T03:05:50.706Z,35.83
2023-05-20T03:06:50.774Z,35.82
2023-05-20T03:07:50.841Z,35.83
2023-05-20T03:08:50.906Z,35.80
2023-05-20T03:09:50.963Z,35.82
2023-05-20T03:10:51.032Z,35.81
2023-05-20T03:11:51.106Z,35.82
2023-05-20T03:12:51.177Z,35.83
2023-05-20T03:13:51.241Z,35.82
2023-05-20T03:14:51.290Z,35.84
2023-05-20T03:15:51.401Z,35.84
2023-05-20T03:16:51.408Z,35.86
2023-05-20T03:17:51.506Z,35.85
2023-05-20T03:18:51.599Z,35.87
2023-05-20T03:19:51.614Z,35.85
2023-05-20T03:20:51.668Z,35.84
2023-05-20T03:21:51.715Z,35.83
2023-05-20T03:22:51.807Z,35.82
2023-05-20T03:23:51.855Z,35.83
2023-05-20T03:24:51.916Z,35.83
2023-05-20T03:25:51.974Z,35.82
2023-05-20T03:26:52.040Z,35.83
2023-05-20T03:27:52.097Z,35.81
2023-05-20T03:28:52.163Z,35.82
2023-05-20T03:29:52.233Z,35.82
2023-05-20T03:30:52.304Z,35.82
2023-05-20T03:31:52.402Z,35.82
2023-05-20T03:32:52.472Z,35.81
2023-05-20T03:33:52.477Z,35.82
2023-05-20T03:34:52.534Z,35.81
2023-05-20T03:35:52.628Z,35.82
2023-05-20T03:36:52.661Z,35.81
2023-05-20T03:37:52.747Z,35.80
2023-05-20T03:38:52.793Z,35.78
2023-05-20T03:39:52.867Z,35.81
2023-05-20T03:40:52.930Z,35.80
2023-05-20T03:41:52.995Z,35.82
2023-05-20T03:42:53.047Z,35.81
2023-05-20T03:43:53.132Z,35.81
2023-05-20T03:44:53.198Z,35.79
2023-05-20T03:45:53.252Z,35.76
2023-05-20T03:46:53.426Z,35.77
2023-05-20T03:47:53.392Z,35.81
2023-05-20T03:48:53.414Z,35.76
2023-05-20T03:49:53.494Z,35.77
2023-05-20T03:50:53.562Z,35.80
2023-05-20T03:51:53.627Z,35.78
2023-05-20T03:52:53.680Z,35.76
2023-05-20T03:53:53.752Z,35.77
2023-05-20T03:54:53.783Z,35.74
2023-05-20T03:55:53.841Z,35.76
2023-05-20T03:56:53.922Z,35.76
2023-05-20T03:57:53.986Z,35.76
2023-05-20T03:58:54.031Z,35.76
2023-05-20T03:59:54.106Z,35.77
2023-05-20T04:00:54.185Z,35.75
2023-05-20T04:01:54.251Z,35.74
2023-05-20T04:02:54.455Z,35.73
2023-05-20T04:03:54.417Z,35.74
2023-05-20T04:04:54.431Z,35.71
2023-05-20T04:05:54.485Z,35.74
2023-05-20T04:06:54.524Z,35.72
2023-05-20T04:07:54.594Z,35.74
2023-05-20T04:08:54.696Z,35.76
2023-05-20T04:09:54.736Z,35.73
2023-05-20T04:10:54.783Z,35.74
2023-05-20T04:11:54.864Z,35.74
2023-05-20T04:12:54.916Z,35.71
2023-05-20T04:13:54.984Z,35.73
2023-05-20T04:14:55.043Z,35.73
2023-05-20T04:15:55.112Z,35.73
2023-05-20T04:16:55.179Z,35.72
2023-05-20T04:17:55.258Z,35.71
2023-05-20T04:18:55.314Z,35.71
2023-05-20T04:19:55.342Z,35.72
2023-05-20T04:20:55.395Z,35.71
2023-05-20T04:21:55.469Z,35.72
2023-05-20T04:22:55.526Z,35.73
2023-05-20T04:23:55.575Z,35.71
2023-05-20T04:24:55.645Z,35.70
2023-05-20T04:25:55.697Z,35.70
2023-05-20T04:26:55.788Z,35.70
2023-05-20T04:27:55.825Z,35.70
2023-05-20T04:28:55.909Z,35.72
2023-05-20T04:29:55.957Z,35.72
2023-05-20T04:30:56.005Z,35.70
2023-05-20T04:31:56.089Z,35.68
2023-05-20T04:32:56.139Z,35.72
2023-05-20T04:33:56.185Z,35.69
2023-05-20T04:34:56.243Z,35.68
2023-05-20T04:35:56.315Z,35.65
2023-05-20T04:36:56.358Z,35.67
2023-05-20T04:37:56.441Z,35.66
2023-05-20T04:38:56.487Z,35.66
2023-05-20T04:39:56.556Z,35.66
2023-05-20T04:40:56.616Z,35.67
2023-05-20T04:41:56.666Z,35.66
2023-05-20T04:42:56.714Z,35.67
2023-05-20T04:43:56.778Z,35.70
2023-05-20T04:44:56.860Z,35.67
2023-05-20T04:45:56.937Z,35.68
2023-05-20T04:46:56.969Z,35.67
2023-05-20T04:47:57.055Z,35.66
2023-05-20T04:48:57.096Z,35.65
2023-05-20T04:49:57.153Z,35.67
2023-05-20T04:50:57.209Z,35.66
2023-05-20T04:51:57.270Z,35.68
2023-05-20T04:52:57.322Z,35.66
2023-05-20T04:53:57.382Z,35.67
2023-05-20T04:54:57.431Z,35.66
2023-05-20T04:55:57.478Z,35.65
2023-05-20T04:56:57.544Z,35.63
2023-05-20T04:57:57.609Z,35.63
2023-05-20T04:58:57.660Z,35.62
2023-05-20T04:59:57.720Z,35.61
2023-05-20T05:00:57.757Z,35.59
2023-05-20T05:01:57.908Z,35.58
2023-05-20T05:02:57.895Z,35.57
2023-05-20T05:03:57.943Z,35.53
2023-05-20T05:04:58.007Z,35.52
2023-05-20T05:05:58.030Z,35.48
2023-05-20T05:06:58.070Z,35.45
2023-05-20T05:07:58.118Z,35.44
2023-05-20T05:08:58.177Z,35.43
2023-05-20T05:09:58.253Z,35.37
2023-05-20T05:10:58.310Z,35.35
2023-05-20T05:11:58.331Z,35.27
2023-05-20T05:12:58.372Z,35.19
2023-05-20T05:13:58.423Z,35.16
2023-05-20T05:14:58.455Z,35.16
2023-05-20T05:15:58.527Z,35.14
2023-05-20T05:16:58.547Z,35.12
2023-05-20T05:17:58.605Z,35.13
2023-05-20T05:18:58.699Z,35.16
2023-05-20T05:19:58.668Z,35.15
2023-05-20T05:20:58.694Z,35.16
2023-05-20T05:21:58.737Z,35.17
2023-05-20T05:22:58.773Z,35.14
2023-05-20T05:23:58.825Z,35.15
2023-05-20T05:24:58.875Z,35.11
2023-05-20T05:25:58.938Z,35.09
2023-05-20T05:26:58.918Z,35.08
2023-05-20T05:27:58.961Z,35.07
2023-05-20T05:28:58.999Z,35.06
2023-05-20T05:29:59.016Z,35.03
2023-05-20T05:30:59.089Z,35.06
2023-05-20T05:31:59.168Z,35.00
2023-05-20T05:32:59.214Z,34.98
2023-05-20T05:33:59.144Z,34.96
2023-05-20T05:34:59.162Z,34.97
2023-05-20T05:35:59.446Z,34.96
2023-05-20T05:36:59.223Z,34.95
2023-05-20T05:37:59.252Z,34.91
2023-05-20T05:38:59.266Z,34.89
2023-05-20T05:39:59.304Z,34.86
2023-05-20T05:40:59.333Z,34.85
2023-05-20T05:41:59.496Z,34.85
2023-05-20T05:42:59.368Z,34.84
2023-05-20T05:43:59.403Z,34.84
2023-05-20T05:44:59.409Z,34.82
2023-05-20T05:45:59.447Z,34.83
2023-05-20T05:46:59.497Z,34.82
2023-05-20T05:47:59.530Z,34.81
2023-05-20T05:48:59.525Z,34.80
2023-05-20T05:49:59.533Z,34.79
2023-05-20T05:50:59.561Z,34.77
2023-05-20T05:51:59.561Z,34.76
2023-05-20T05:52:59.575Z,34.74
2023-05-20T05:53:59.619Z,34.76
2023-05-20T05:54:59.614Z,34.79
2023-05-20T05:55:59.632Z,34.76
2023-05-20T05:56:59.652Z,34.76
2023-05-20T05:57:59.652Z,34.74
2023-05-20T05:58:59.686Z,34.74
2023-05-20T05:59:59.687Z,34.77
2023-05-20T06:00:59.695Z,34.77
2023-05-20T06:01:59.715Z,34.76
2023-05-20T06:02:59.814Z,34.77
2023-05-20T06:03:59.807Z,34.77
2023-05-20T06:04:59.719Z,34.79
2023-05-20T06:05:59.740Z,34.81
2023-05-20T06:06:59.722Z,34.82
2023-05-20T06:07:59.729Z,34.80
2023-05-20T06:08:59.722Z,34.87
2023-05-20T06:09:59.722Z,34.88
2023-05-20T06:10:59.726Z,34.84
2023-05-20T06:11:59.728Z,34.83
2023-05-20T06:12:59.733Z,34.85
2023-05-20T06:13:59.732Z,34.86
2023-05-20T06:14:59.734Z,34.85
2023-05-20T06:15:59.727Z,34.85
2023-05-20T06:16:59.813Z,34.87
2023-05-20T06:17:59.789Z,34.88
2023-05-20T06:19:02.513Z,34.88
2023-05-20T06:19:59.694Z,34.86
2023-05-20T06:20:59.692Z,34.86
2023-05-20T06:21:59.679Z,34.87
2023-05-20T06:22:59.676Z,34.85
2023-05-20T06:23:59.680Z,34.87
2023-05-20T06:24:59.663Z,34.85
2023-05-20T06:25:59.666Z,34.88
2023-05-20T06:26:59.651Z,34.87
2023-05-20T06:27:59.652Z,34.90
2023-05-20T06:28:59.646Z,34.90
2023-05-20T06:29:59.625Z,34.91
2023-05-20T06:30:59.657Z,34.91
2023-05-20T06:31:59.629Z,34.93
2023-05-20T06:32:59.677Z,34.92
2023-05-20T06:33:59.611Z,34.98
2023-05-20T06:34:59.600Z,34.97
2023-05-20T06:35:59.588Z,35.01
2023-05-20T06:36:59.568Z,35.03
2023-05-20T06:37:59.574Z,35.03
2023-05-20T06:38:59.570Z,35.06
2023-05-20T06:39:59.561Z,35.05
2023-05-20T06:40:59.539Z,35.04
2023-05-20T06:41:59.538Z,35.04
2023-05-20T06:42:59.552Z,35.05
2023-05-20T06:43:59.536Z,35.04
2023-05-20T06:44:59.515Z,35.03
2023-05-20T06:45:59.505Z,35.04
2023-05-20T06:46:59.513Z,35.05
2023-05-20T06:47:59.544Z,35.05
2023-05-20T06:48:59.509Z,35.06
2023-05-20T06:49:59.491Z,35.06
2023-05-20T06:50:59.490Z,35.08
2023-05-20T06:51:59.461Z,35.07
2023-05-20T06:52:59.471Z,35.07
2023-05-20T06:53:59.456Z,35.08
2023-05-20T06:54:59.458Z,35.06
2023-05-20T06:55:59.439Z,35.11
2023-05-20T06:56:59.427Z,35.10
2023-05-20T06:57:59.439Z,35.13
2023-05-20T06:58:59.434Z,35.15
2023-05-20T06:59:59.407Z,35.12
2023-05-20T07:00:59.400Z,35.12
2023-05-20T07:01:59.423Z,35.10
2023-05-20T07:02:59.498Z,35.10
2023-05-20T07:03:59.585Z,35.10
2023-05-20T07:04:59.579Z,35.10
2023-05-20T07:05:59.631Z,35.13
2023-05-20T07:06:59.677Z,35.13
2023-05-20T07:07:59.747Z,35.15
2023-05-20T07:08:59.803Z,35.14
2023-05-20T07:09:59.841Z,35.14
2023-05-20T07:10:59.908Z,35.16
2023-05-20T07:11:59.960Z,35.19
2023-05-20T07:13:00.007Z,35.18
2023-05-20T07:14:00.064Z,35.17
2023-05-20T07:15:00.206Z,35.15
2023-05-20T07:16:00.234Z,35.16
2023-05-20T07:17:00.213Z,35.16
2023-05-20T07:18:00.299Z,35.17
2023-05-20T07:19:00.363Z,35.20
2023-05-20T07:20:00.394Z,35.20
2023-05-20T07:21:00.411Z,35.21
2023-05-20T07:22:00.484Z,35.24
2023-05-20T07:23:00.547Z,35.25
2023-05-20T07:24:00.582Z,35.21
2023-05-20T07:25:00.634Z,35.21
2023-05-20T07:26:00.679Z,35.18
2023-05-20T07:27:00.731Z,35.19
2023-05-20T07:28:00.766Z,35.15
2023-05-20T07:29:00.854Z,35.16
2023-05-20T07:30:00.875Z,35.18
2023-05-20T07:31:00.934Z,35.17
2023-05-20T07:32:01.032Z,35.14
2023-05-20T07:33:01.022Z,35.15
2023-05-20T07:34:01.010Z,35.17
2023-05-20T07:35:01.070Z,35.17
2023-05-20T07:36:01.108Z,35.18
2023-05-20T07:37:01.116Z,35.17
2023-05-20T07:38:01.162Z,35.18
2023-05-20T07:39:04.439Z,35.21
2023-05-20T07:40:02.183Z,35.20
2023-05-20T07:41:01.166Z,35.18
2023-05-20T07:42:01.208Z,35.19
2023-05-20T07:43:01.151Z,35.20
2023-05-20T07:44:01.151Z,35.17
2023-05-20T07:45:01.143Z,35.19
2023-05-20T07:46:01.198Z,35.20
2023-05-20T07:47:01.156Z,35.18
2023-05-20T07:48:01.178Z,35.19
2023-05-20T07:49:01.157Z,35.19
2023-05-20T07:50:01.154Z,35.16
2023-05-20T07:51:01.162Z,35.15
2023-05-20T07:52:02.973Z,35.17
2023-05-20T07:53:01.263Z,35.14
2023-05-20T07:54:01.331Z,35.15
2023-05-20T07:55:01.364Z,35.16
2023-05-20T07:56:01.430Z,35.20
2023-05-20T07:57:01.503Z,35.21
2023-05-20T07:58:01.566Z,35.19
2023-05-20T07:59:01.635Z,35.21
2023-05-20T08:00:01.689Z,35.21
2023-05-20T08:01:01.731Z,35.23
2023-05-20T08:02:01.829Z,35.25
2023-05-20T08:03:02.181Z,35.26
2023-05-20T08:04:01.950Z,35.29
2023-05-20T08:05:01.907Z,35.27
2023-05-20T08:06:01.950Z,35.28
2023-05-20T08:07:01.983Z,35.31
2023-05-20T08:08:02.039Z,35.26
2023-05-20T08:09:02.070Z,35.29
2023-05-20T08:10:02.150Z,35.24
2023-05-20T08:11:02.183Z,35.28
2023-05-20T08:12:02.237Z,35.30
2023-05-20T08:13:02.290Z,35.25
2023-05-20T08:14:02.375Z,35.27
2023-05-20T08:15:02.443Z,35.27
2023-05-20T08:16:02.497Z,35.29
2023-05-20T08:17:02.595Z,35.30
2023-05-20T08:18:02.688Z,35.30
2023-05-20T08:19:02.722Z,35.32
2023-05-20T08:20:02.743Z,35.31
2023-05-20T08:21:02.788Z,35.29
2023-05-20T08:22:02.853Z,35.31
2023-05-20T08:23:02.922Z,35.29
2023-05-20T08:24:02.956Z,35.32
2023-05-20T08:25:03.007Z,35.32
2023-05-20T08:26:03.045Z,35.30
2023-05-20T08:27:03.119Z,35.30
2023-05-20T08:28:03.166Z,35.27
2023-05-20T08:29:03.210Z,35.31
2023-05-20T08:30:03.234Z,35.29
2023-05-20T08:31:03.334Z,35.26
2023-05-20T08:32:03.369Z,35.26
2023-05-20T08:33:03.431Z,35.28
2023-05-20T08:34:03.474Z,35.26
2023-05-20T08:35:03.510Z,35.25
2023-05-20T08:36:03.589Z,35.23
2023-05-20T08:37:03.633Z,35.23
2023-05-20T08:38:03.713Z,35.22
2023-05-20T08:39:03.764Z,35.24
2023-05-20T08:40:03.842Z,35.22
2023-05-20T08:41:04.146Z,35.22
2023-05-20T08:42:03.917Z,35.22
2023-05-20T08:43:03.956Z,35.21
2023-05-20T08:44:04.002Z,35.18
2023-05-20T08:45:04.027Z,35.18
2023-05-20T08:46:04.132Z,35.16
2023-05-20T08:47:04.152Z,35.18
2023-05-20T08:48:04.220Z,35.16
2023-05-20T08:49:04.225Z,35.17
2023-05-20T08:50:04.254Z,35.15
2023-05-20T08:51:04.323Z,35.16
2023-05-20T08:52:04.340Z,35.17
2023-05-20T08:53:04.422Z,35.17
2023-05-20T08:54:04.427Z,35.16
2023-05-20T08:55:04.477Z,35.14
2023-05-20T08:56:04.521Z,35.14
2023-05-20T08:57:04.568Z,35.14
2023-05-20T08:58:04.618Z,35.14
2023-05-20T08:59:04.685Z,35.12
2023-05-20T09:00:04.716Z,35.12
2023-05-20T09:01:04.779Z,35.13
2023-05-20T09:02:04.893Z,35.10
2023-05-20T09:03:04.903Z,35.07
2023-05-20T09:04:04.918Z,35.07
2023-05-20T09:05:04.947Z,35.07
2023-05-20T09:06:05.000Z,35.06
2023-05-20T09:07:05.027Z,35.05
2023-05-20T09:08:05.460Z,35.01
2023-05-20T09:09:05.096Z,35.02
2023-05-20T09:10:05.129Z,35.01
2023-05-20T09:11:05.190Z,35.02
2023-05-20T09:12:05.203Z,34.99
2023-05-20T09:13:05.289Z,34.99
2023-05-20T09:14:05.281Z,34.96
2023-05-20T09:15:05.346Z,34.96
2023-05-20T09:16:05.387Z,34.94
2023-05-20T09:17:05.413Z,34.93
2023-05-20T09:18:05.514Z,34.95
2023-05-20T09:19:05.504Z,34.94
2023-05-20T09:20:05.510Z,34.91
2023-05-20T09:21:05.548Z,34.90
2023-05-20T09:22:05.610Z,34.91
2023-05-20T09:23:05.640Z,34.88
2023-05-20T09:24:05.692Z,34.87
2023-05-20T09:25:05.713Z,34.86
2023-05-20T09:26:05.775Z,34.86
2023-05-20T09:27:05.825Z,34.86
2023-05-20T09:28:05.879Z,34.85
2023-05-20T09:29:05.919Z,34.83
2023-05-20T09:30:05.972Z,34.85
2023-05-20T09:31:06.005Z,34.86
2023-05-20T09:32:06.074Z,34.83
2023-05-20T09:33:06.153Z,34.84
2023-05-20T09:34:06.080Z,34.84
2023-05-20T09:35:06.129Z,34.86
2023-05-20T09:36:06.152Z,34.83
2023-05-20T09:37:06.187Z,34.83
2023-05-20T09:38:06.223Z,34.83
2023-05-20T09:39:06.258Z,34.84
2023-05-20T09:40:06.306Z,34.85
2023-05-20T09:41:06.349Z,34.85
2023-05-20T09:42:06.356Z,34.87
2023-05-20T09:43:06.410Z,34.85
2023-05-20T09:44:06.453Z,34.87
2023-05-20T09:45:06.501Z,34.86
2023-05-20T09:46:06.567Z,34.86
2023-05-20T09:47:08.524Z,34.89
2023-05-20T09:48:06.632Z,34.87
2023-05-20T09:49:06.636Z,34.88
2023-05-20T09:50:06.683Z,34.89
2023-05-20T09:51:06.740Z,34.91
2023-05-20T09:52:06.754Z,34.94
2023-05-20T09:53:06.849Z,34.92
2023-05-20T09:54:06.869Z,34.96
2023-05-20T09:55:06.923Z,34.94
2023-05-20T09:56:06.964Z,34.98
2023-05-20T09:57:07.023Z,34.97
2023-05-20T09:58:07.058Z,34.98
2023-05-20T09:59:07.109Z,34.98
2023-05-20T10:00:07.151Z,35.00
2023-05-20T10:01:07.255Z,34.99
2023-05-20T10:02:07.319Z,34.98
2023-05-20T10:03:07.391Z,35.01
2023-05-20T10:04:07.401Z,35.03
2023-05-20T10:05:07.448Z,35.02
2023-05-20T10:06:07.460Z,35.06
2023-05-20T10:07:07.521Z,35.05
2023-05-20T10:08:07.543Z,35.08
2023-05-20T10:09:07.594Z,35.07
2023-05-20T10:10:07.638Z,35.10
2023-05-20T10:11:07.674Z,35.11
2023-05-20T10:12:07.698Z,35.10
2023-05-20T10:13:07.734Z,35.12
2023-05-20T10:14:07.794Z,35.13
2023-05-20T10:15:07.825Z,35.15
2023-05-20T10:16:07.956Z,35.17
2023-05-20T10:17:07.891Z,35.17
2023-05-20T10:18:07.944Z,35.18
2023-05-20T10:19:08.113Z,35.19
2023-05-20T10:20:08.037Z,35.21
2023-05-20T10:21:08.097Z,35.23
2023-05-20T10:22:08.156Z,35.22
2023-05-20T10:23:08.199Z,35.27
2023-05-20T10:24:08.293Z,35.26
2023-05-20T10:25:08.308Z,35.27
2023-05-20T10:26:08.358Z,35.28
2023-05-20T10:27:08.387Z,35.29
2023-05-20T10:28:08.413Z,35.33
2023-05-20T10:29:10.299Z,35.35
2023-05-20T10:30:08.418Z,35.36
2023-05-20T10:31:08.409Z,35.36
2023-05-20T10:32:08.426Z,35.39
2023-05-20T10:33:08.451Z,35.41
2023-05-20T10:34:08.379Z,35.42
2023-05-20T10:35:08.403Z,35.42
2023-05-20T10:36:08.364Z,35.44
2023-05-20T10:37:08.356Z,35.45
2023-05-20T10:38:08.351Z,35.47
2023-05-20T10:39:08.368Z,35.46
2023-05-20T10:40:08.433Z,35.50
2023-05-20T10:41:08.329Z,35.51
2023-05-20T10:42:08.361Z,35.53
2023-05-20T10:43:08.331Z,35.55
2023-05-20T10:44:08.358Z,35.59
2023-05-20T10:45:08.319Z,35.58
2023-05-20T10:46:17.158Z,35.59
2023-05-20T10:47:24.798Z,35.59
2023-05-20T10:48:09.441Z,35.64
2023-05-20T10:49:08.410Z,35.63
2023-05-20T10:50:08.271Z,35.64
2023-05-20T10:51:08.283Z,35.62
2023-05-20T10:52:08.254Z,35.60
2023-05-20T10:53:13.330Z,35.61
2023-05-20T10:54:09.261Z,35.63
2023-05-20T10:55:08.253Z,35.57
2023-05-20T10:56:08.222Z,35.55
2023-05-20T10:57:08.218Z,35.56
2023-05-20T10:58:08.223Z,35.53
2023-05-20T10:59:08.213Z,35.50
2023-05-20T11:00:08.198Z,35.45
2023-05-20T11:01:08.257Z,35.47
2023-05-20T11:02:08.182Z,35.46
2023-05-20T11:03:08.274Z,35.42
2023-05-20T11:04:08.334Z,35.40
2023-05-20T11:05:08.261Z,35.38
2023-05-20T11:06:08.284Z,35.34
2023-05-20T11:07:08.330Z,35.32
2023-05-20T11:08:16.774Z,35.28
2023-05-20T11:09:09.370Z,35.30
2023-05-20T11:10:08.375Z,35.24
2023-05-20T11:11:08.347Z,35.22
2023-05-20T11:12:08.354Z,35.16
2023-05-20T11:13:08.362Z,35.11
2023-05-20T11:14:08.328Z,35.11
2023-05-20T11:15:08.339Z,35.08
2023-05-20T11:16:08.356Z,35.03
2023-05-20T11:17:08.468Z,35.01
2023-05-20T11:18:08.362Z,34.97
2023-05-20T11:19:08.408Z,34.92
2023-05-20T11:20:08.396Z,34.89
2023-05-20T11:21:08.408Z,34.87
2023-05-20T11:22:08.515Z,34.82
2023-05-20T11:23:08.497Z,34.80
2023-05-20T11:24:08.570Z,34.75
2023-05-20T11:25:08.553Z,34.74
2023-05-20T11:26:08.588Z,34.72
2023-05-20T11:27:08.654Z,34.69
2023-05-20T11:28:08.699Z,34.65
2023-05-20T11:29:08.755Z,34.64
2023-05-20T11:30:08.775Z,34.63
2023-05-20T11:31:08.851Z,34.59
2023-05-20T11:32:08.900Z,34.56
2023-05-20T11:33:08.981Z,34.54
2023-05-20T11:34:08.966Z,34.45
2023-05-20T11:35:09.010Z,34.45
2023-05-20T11:36:23.866Z,34.43
2023-05-20T11:37:10.082Z,34.40
2023-05-20T11:38:09.023Z,34.36
2023-05-20T11:39:09.038Z,34.34
2023-05-20T11:40:09.013Z,34.30
2023-05-20T11:41:09.022Z,34.28
2023-05-20T11:42:09.011Z,34.25
2023-05-20T11:43:08.996Z,34.23
2023-05-20T11:44:08.980Z,34.18
2023-05-20T11:45:08.986Z,34.16
2023-05-20T11:46:09.038Z,34.16
2023-05-20T11:47:09.071Z,34.15
2023-05-20T11:48:09.123Z,34.11
2023-05-20T11:49:09.122Z,34.07
2023-05-20T11:50:09.166Z,34.04
2023-05-20T11:51:09.190Z,34.03
2023-05-20T11:52:09.243Z,34.01
2023-05-20T11:53:09.280Z,33.98
2023-05-20T11:54:09.321Z,33.95
2023-05-20T11:55:09.365Z,33.92
2023-05-20T11:56:09.389Z,33.90
2023-05-20T11:57:09.466Z,33.88
2023-05-20T11:58:09.477Z,33.84
2023-05-20T11:59:09.556Z,33.79
2023-05-20T12:00:09.581Z,33.78
2023-05-20T12:01:21.568Z,33.76
2023-05-20T12:02:10.663Z,33.75
2023-05-20T12:03:09.700Z,33.72
2023-05-20T12:04:09.725Z,33.69
2023-05-20T12:05:09.594Z,33.66
2023-05-20T12:06:09.603Z,33.64
2023-05-20T12:07:09.598Z,33.65
2023-05-20T12:08:09.584Z,33.59
2023-05-20T12:09:09.567Z,33.58
2023-05-20T12:10:09.558Z,33.56
2023-05-20T12:11:09.647Z,33.52
2023-05-20T12:12:09.703Z,33.50
2023-05-20T12:13:09.751Z,33.46
2023-05-20T12:14:09.808Z,33.47
2023-05-20T12:15:09.843Z,33.44
2023-05-20T12:16:09.936Z,33.42
2023-05-20T12:17:09.974Z,33.40
2023-05-20T12:18:10.091Z,33.40
2023-05-20T12:19:10.235Z,33.37
2023-05-20T12:20:10.161Z,33.35
2023-05-20T12:21:10.192Z,33.31
2023-05-20T12:22:10.310Z,33.29
2023-05-20T12:23:10.282Z,33.29
2023-05-20T12:24:10.350Z,33.25
2023-05-20T12:25:10.382Z,33.25
2023-05-20T12:26:10.436Z,33.24
2023-05-20T12:27:10.463Z,33.21
2023-05-20T12:28:10.528Z,33.16
2023-05-20T12:29:10.573Z,33.16
2023-05-20T12:30:10.658Z,33.13
2023-05-20T12:31:10.721Z,33.12
2023-05-20T12:32:10.805Z,33.09
2023-05-20T12:33:10.815Z,33.08
2023-05-20T12:34:10.878Z,33.08
2023-05-20T12:35:10.927Z,33.07
2023-05-20T12:36:10.990Z,32.99
2023-05-20T12:37:11.041Z,32.98
2023-05-20T12:38:11.103Z,33.01
2023-05-20T12:39:11.197Z,32.95
2023-05-20T12:40:11.182Z,32.95
2023-05-20T12:41:11.231Z,32.94
2023-05-20T12:42:11.262Z,32.91
2023-05-20T12:43:11.324Z,32.91
2023-05-20T12:44:11.388Z,32.89
2023-05-20T12:45:11.416Z,32.87
2023-05-20T12:46:11.455Z,32.86
2023-05-20T12:47:11.553Z,32.84
2023-05-20T12:48:11.651Z,32.87
2023-05-20T12:49:11.637Z,32.83
2023-05-20T12:50:11.695Z,32.80
2023-05-20T12:51:11.694Z,32.81
2023-05-20T12:52:21.612Z,32.77
2023-05-20T12:53:12.744Z,32.79